createdAt,value
2019-04-24T00:05:38.576Z,12.42
2019-04-24T00:12:34.903Z,12.44
2019-04-24T00:19:01.770Z,12.31
2019-04-24T00:22:14.830Z,12.34
2019-04-24T00:25:23.451Z,12.34
2019-04-24T00:29:18.977Z,12.32
2019-04-24T00:35:20.169Z,12.29
2019-04-24T00:38:37.319Z,12.29
2019-04-24T00:45:13.458Z,12.11
2019-04-24T00:48:32.176Z,12.02
2019-04-24T00:57:42.606Z,11.89
2019-04-24T01:01:20.288Z,12.02
2019-04-24T01:07:42.819Z,12.00
2019-04-24T01:11:08.775Z,12.06
2019-04-24T01:14:22.923Z,11.94
2019-04-24T01:17:32.284Z,11.94
2019-04-24T01:24:01.846Z,11.93
2019-04-24T01:27:15.338Z,11.98
2019-04-24T01:37:30.297Z,12.00
2019-04-24T01:41:07.730Z,12.07
2019-04-24T01:44:11.606Z,12.03
2019-04-24T01:50:29.625Z,12.00
2019-04-24T01:57:37.500Z,11.95
2019-04-24T02:00:58.420Z,11.90
2019-04-24T02:03:51.445Z,11.84
2019-04-24T02:08:04.480Z,11.77
2019-04-24T02:14:15.320Z,11.69
2019-04-24T02:17:28.941Z,11.65
2019-04-24T02:27:02.572Z,11.61
2019-04-24T02:30:20.346Z,11.57
2019-04-24T02:33:52.491Z,11.47
2019-04-24T02:40:12.754Z,11.51
2019-04-24T02:46:36.875Z,11.43
2019-04-24T02:49:58.397Z,11.36
2019-04-24T02:55:56.079Z,11.39
2019-04-24T03:02:34.002Z,11.45
2019-04-24T03:05:10.367Z,11.39
2019-04-24T03:11:59.741Z,11.37
2019-04-24T03:15:22.405Z,11.13
2019-04-24T03:18:17.488Z,11.29
2019-04-24T03:22:11.902Z,11.30
2019-04-24T03:48:49.501Z,11.29
2019-04-24T03:55:35.599Z,11.51
2019-04-24T03:59:03.809Z,11.46
2019-04-24T04:02:33.858Z,11.42
2019-04-24T04:05:22.704Z,11.49
2019-04-24T04:12:02.852Z,11.16
2019-04-24T04:15:10.324Z,11.33
2019-04-24T04:18:34.543Z,11.33
2019-04-24T04:25:01.662Z,11.20
2019-04-24T04:34:52.126Z,11.22
2019-04-24T04:41:35.142Z,11.05
2019-04-24T04:47:39.726Z,11.29
2019-04-24T04:55:29.012Z,11.40
2019-04-24T04:57:47.430Z,11.46
2019-04-24T05:01:12.322Z,11.76
2019-04-24T05:08:01.086Z,11.81
2019-04-24T05:10:55.518Z,11.89
2019-04-24T05:20:22.804Z,11.98
2019-04-24T05:30:01.113Z,12.29
2019-04-24T05:36:25.809Z,12.29
2019-04-24T05:52:21.568Z,12.53
2019-04-24T05:58:32.258Z,12.56
2019-04-24T06:02:10.003Z,12.53
2019-04-24T06:11:39.469Z,12.68
2019-04-24T06:18:44.944Z,12.81
2019-04-24T06:21:36.207Z,12.64
2019-04-24T06:24:35.185Z,12.60
2019-04-24T06:27:52.241Z,12.51
2019-04-24T06:31:02.626Z,12.77
2019-04-24T06:34:02.469Z,12.50
2019-04-24T06:37:25.899Z,12.34
2019-04-24T06:41:28.312Z,12.41
2019-04-24T06:44:57.705Z,12.41
2019-04-24T06:50:55.949Z,12.58
2019-04-24T07:01:27.052Z,12.52
2019-04-24T07:07:42.825Z,12.72
2019-04-24T07:11:37.110Z,12.53
2019-04-24T07:18:46.962Z,12.48
2019-04-24T07:22:19.244Z,12.49
2019-04-24T07:25:49.155Z,12.85
2019-04-24T07:28:44.259Z,12.67
2019-04-24T07:32:03.918Z,12.85
2019-04-24T07:35:54.956Z,12.86
2019-04-24T07:38:40.834Z,12.86
2019-04-24T07:45:11.421Z,13.05
2019-04-24T07:48:11.385Z,13.12
2019-04-24T07:51:31.069Z,13.14
2019-04-24T07:57:39.440Z,13.13
2019-04-24T08:00:49.577Z,13.37
2019-04-24T08:10:45.061Z,13.37
2019-04-24T08:16:47.553Z,13.48
2019-04-24T08:20:12.804Z,13.52
2019-04-24T08:22:55.469Z,13.87
2019-04-24T08:29:10.381Z,13.72
2019-04-24T08:32:32.758Z,13.76
2019-04-24T08:39:32.597Z,13.51
2019-04-24T08:42:46.065Z,13.60
2019-04-24T08:45:55.037Z,13.37
2019-04-24T08:49:18.148Z,13.69
2019-04-24T08:52:27.347Z,13.58
2019-04-24T08:55:21.709Z,13.59
2019-04-24T08:58:42.253Z,13.62
2019-04-24T09:05:30.484Z,13.97
2019-04-24T09:08:42.125Z,13.99
2019-04-24T09:11:59.699Z,14.19
2019-04-24T09:14:59.695Z,14.44
2019-04-24T09:18:13.905Z,14.44
2019-04-24T09:21:14.632Z,14.64
2019-04-24T09:25:14.253Z,14.94
2019-04-24T09:28:44.738Z,15.02
2019-04-24T09:31:53.532Z,15.15
2019-04-24T09:34:51.371Z,15.07
2019-04-24T09:41:39.296Z,15.23
2019-04-24T09:44:41.628Z,15.40
2019-04-24T09:47:58.791Z,15.45
2019-04-24T09:51:02.094Z,15.48
2019-04-24T09:54:28.241Z,15.46
2019-04-24T09:57:34.611Z,15.47
2019-04-24T10:04:17.234Z,15.46
2019-04-24T10:07:21.382Z,15.09
2019-04-24T10:10:26.062Z,14.76
2019-04-24T10:13:29.774Z,14.67
2019-04-24T10:16:55.341Z,14.38
2019-04-24T10:23:04.781Z,14.58
2019-04-24T10:29:50.733Z,14.45
2019-04-24T10:33:12.596Z,14.36
2019-04-24T10:36:30.906Z,14.26
2019-04-24T10:43:30.834Z,14.15
2019-04-24T10:47:09.748Z,13.98
2019-04-24T10:57:41.733Z,14.25
2019-04-24T10:59:54.808Z,14.59
2019-04-24T11:03:17.336Z,14.59
2019-04-24T11:06:43.340Z,14.49
2019-04-24T11:13:24.007Z,15.04
2019-04-24T11:20:47.707Z,15.16
2019-04-24T11:23:42.338Z,15.24
2019-04-24T11:30:14.027Z,15.22
2019-04-24T11:37:24.233Z,14.74
2019-04-24T11:40:36.872Z,14.77
2019-04-24T11:43:30.814Z,14.79
2019-04-24T11:50:54.682Z,15.17
2019-04-24T11:53:43.381Z,15.13
2019-04-24T11:59:45.152Z,15.28
2019-04-24T12:03:32.843Z,15.38
2019-04-24T12:06:37.968Z,15.31
2019-04-24T12:09:59.512Z,15.38
2019-04-24T12:19:58.684Z,15.58
2019-04-24T12:23:01.972Z,15.71
2019-04-24T12:26:10.979Z,15.84
2019-04-24T12:29:07.261Z,15.78
2019-04-24T12:32:46.512Z,15.67
2019-04-24T12:35:54.394Z,15.77
2019-04-24T12:39:04.128Z,15.87
2019-04-24T12:42:20.001Z,15.79
2019-04-24T12:45:18.767Z,15.82
2019-04-24T12:48:30.031Z,15.74
2019-04-24T12:51:32.374Z,15.70
2019-04-24T12:58:18.453Z,15.98
2019-04-24T13:01:28.341Z,15.97
2019-04-24T13:04:52.304Z,16.03
2019-04-24T13:08:00.125Z,16.28
2019-04-24T13:14:29.785Z,16.84
2019-04-24T13:17:50.693Z,17.17
2019-04-24T13:20:25.176Z,17.55
2019-04-24T13:23:43.252Z,17.61
2019-04-24T13:27:16.955Z,17.30
2019-04-24T13:30:26.299Z,17.80
2019-04-24T13:36:41.482Z,18.12
2019-04-24T13:39:46.409Z,17.89
2019-04-24T13:42:58.623Z,17.53
2019-04-24T13:46:03.410Z,17.05
2019-04-24T13:49:21.703Z,16.89
2019-04-24T13:55:28.158Z,16.77
2019-04-24T13:58:32.881Z,16.67
2019-04-24T14:04:47.097Z,16.58
2019-04-24T14:08:02.884Z,16.44
2019-04-24T14:14:07.943Z,16.41
2019-04-24T14:17:09.580Z,16.36
2019-04-24T14:20:36.528Z,16.46
2019-04-24T14:23:57.054Z,16.38
2019-04-24T14:26:53.950Z,16.37
2019-04-24T14:30:01.353Z,16.34
2019-04-24T14:36:17.144Z,16.07
2019-04-24T14:42:26.665Z,16.04
2019-04-24T14:45:50.321Z,15.67
2019-04-24T14:48:42.644Z,15.59
2019-04-24T14:52:03.202Z,15.40
2019-04-24T14:58:10.400Z,15.63
2019-04-24T15:01:36.226Z,15.71
2019-04-24T15:04:28.964Z,16.12
2019-04-24T15:07:42.144Z,16.31
2019-04-24T15:20:27.336Z,16.30
2019-04-24T15:39:13.577Z,17.28
2019-04-24T15:45:24.404Z,17.24
2019-04-24T15:48:33.647Z,17.27
2019-04-24T15:51:30.135Z,16.94
2019-04-24T15:54:20.443Z,17.19
2019-04-24T15:57:25.548Z,17.03
2019-04-24T16:01:05.262Z,17.11
2019-04-24T16:04:08.974Z,17.10
2019-04-24T16:07:07.161Z,17.26
2019-04-24T16:10:23.676Z,17.18
2019-04-24T16:13:34.353Z,16.94
2019-04-24T16:17:08.036Z,17.03
2019-04-24T16:23:27.682Z,17.11
2019-04-24T16:26:46.308Z,16.97
2019-04-24T16:29:40.856Z,16.60
2019-04-24T16:32:58.424Z,16.34
2019-04-24T16:46:40.663Z,16.63
2019-04-24T16:49:53.685Z,16.93
2019-04-24T16:52:22.131Z,17.02
2019-04-24T16:55:36.010Z,17.06
2019-04-24T17:05:16.570Z,17.65
2019-04-24T17:11:18.846Z,17.64
2019-04-24T17:14:45.359Z,17.66
2019-04-24T17:18:06.927Z,17.71
2019-04-24T17:36:27.397Z,17.67
2019-04-24T17:39:31.439Z,17.39
2019-04-24T17:42:51.995Z,17.21
2019-04-24T17:46:11.045Z,17.24
2019-04-24T17:52:40.243Z,17.05
2019-04-24T18:01:15.334Z,16.81
2019-04-24T18:04:21.170Z,16.82
2019-04-24T18:07:25.782Z,16.70
2019-04-24T18:10:33.889Z,16.64
2019-04-24T18:13:39.158Z,16.50
2019-04-24T18:16:47.225Z,16.37
2019-04-24T18:19:51.867Z,16.01
2019-04-24T18:22:57.297Z,16.01
2019-04-24T18:26:27.158Z,15.97
2019-04-24T18:29:32.003Z,15.91
2019-04-24T18:32:36.873Z,15.60
2019-04-24T18:35:42.566Z,15.59
2019-04-24T18:38:54.329Z,15.57
2019-04-24T18:41:59.330Z,15.41
2019-04-24T18:45:08.389Z,15.20
2019-04-24T18:48:13.655Z,15.08
2019-04-24T18:51:21.600Z,14.91
2019-04-24T18:54:29.507Z,14.91
2019-04-24T18:57:40.545Z,14.75
2019-04-24T19:01:22.095Z,14.60
2019-04-24T19:04:26.950Z,14.48
2019-04-24T19:07:31.632Z,14.36
2019-04-24T19:10:36.757Z,14.36
2019-04-24T19:13:41.495Z,14.29
2019-04-24T19:16:46.307Z,14.29
2019-04-24T19:19:52.898Z,14.17
2019-04-24T19:23:08.043Z,14.17
2019-04-24T19:26:56.013Z,14.28
2019-04-24T19:30:02.003Z,14.22
2019-04-24T19:33:09.320Z,14.21
2019-04-24T19:36:14.794Z,14.16
2019-04-24T19:39:19.745Z,14.11
2019-04-24T19:42:27.138Z,14.10
2019-04-24T19:45:33.244Z,14.09
2019-04-24T19:48:37.777Z,14.12
2019-04-24T19:51:44.447Z,14.02
2019-04-24T19:54:59.392Z,14.12
2019-04-24T19:58:05.890Z,13.98
2019-04-24T20:01:13.300Z,14.11
2019-04-24T20:04:17.480Z,14.09
2019-04-24T20:07:22.128Z,14.19
2019-04-24T20:11:02.453Z,14.12
2019-04-24T20:14:09.017Z,14.12
2019-04-24T20:17:14.508Z,14.12
2019-04-24T20:20:19.212Z,14.12
2019-04-24T20:23:34.501Z,14.13
2019-04-24T20:26:35.284Z,13.85
2019-04-24T20:29:42.220Z,13.85
2019-04-24T20:32:46.614Z,14.01
2019-04-24T20:35:50.913Z,13.96
2019-04-24T20:38:55.237Z,13.92
2019-04-24T20:41:59.580Z,14.05
2019-04-24T20:45:03.932Z,13.96
2019-04-24T20:48:08.862Z,13.97
2019-04-24T20:51:13.199Z,13.98
2019-04-24T20:54:18.498Z,14.10
2019-04-24T20:57:22.902Z,14.03
2019-04-24T21:00:31.531Z,14.13
2019-04-24T21:03:36.002Z,13.98
2019-04-24T21:06:46.068Z,13.53
2019-04-24T21:09:55.038Z,13.53
2019-04-24T21:12:59.348Z,13.45
2019-04-24T21:16:03.702Z,13.32
2019-04-24T21:19:08.028Z,13.09
2019-04-24T21:22:12.355Z,13.09
2019-04-24T21:25:16.683Z,12.99
2019-04-24T21:28:22.650Z,12.91
2019-04-24T21:31:27.059Z,12.88
2019-04-24T21:34:31.408Z,12.79
2019-04-24T21:37:35.734Z,12.74
2019-04-24T21:40:40.044Z,12.73
2019-04-24T21:43:44.466Z,12.69
2019-04-24T21:46:48.797Z,12.56
2019-04-24T21:49:53.112Z,12.59
2019-04-24T21:52:57.443Z,12.54
2019-04-24T21:56:01.753Z,12.47
2019-04-24T21:59:07.131Z,12.54
2019-04-24T22:02:27.646Z,12.49
2019-04-24T22:05:39.135Z,12.44
2019-04-24T22:08:43.457Z,12.52
2019-04-24T22:11:48.071Z,12.53
2019-04-24T22:14:52.401Z,12.49
2019-04-24T22:17:56.790Z,12.54
2019-04-24T22:21:04.925Z,12.74
2019-04-24T22:24:31.636Z,12.70
2019-04-24T22:27:38.933Z,12.77
2019-04-24T22:31:05.365Z,12.91
2019-04-24T22:34:14.141Z,12.91
2019-04-24T22:37:18.482Z,12.87
2019-04-24T22:40:33.074Z,12.70
2019-04-24T22:43:38.103Z,12.70
2019-04-24T22:46:42.386Z,12.90
2019-04-24T22:49:46.709Z,12.88
2019-04-24T22:52:51.684Z,12.68
2019-04-24T22:55:56.045Z,12.68
2019-04-24T22:59:01.043Z,12.55
2019-04-24T23:02:06.756Z,12.68
2019-04-24T23:05:11.632Z,12.74
2019-04-24T23:08:16.036Z,12.88
2019-04-24T23:11:22.059Z,13.04
2019-04-24T23:14:26.899Z,13.27
2019-04-24T23:17:31.834Z,13.23
2019-04-24T23:20:46.387Z,13.31
2019-04-24T23:24:08.054Z,13.15
2019-04-24T23:27:17.198Z,12.96
2019-04-24T23:30:49.336Z,12.76
2019-04-24T23:33:55.362Z,12.76
2019-04-24T23:36:59.856Z,12.68
2019-04-24T23:40:05.991Z,12.48
2019-04-24T23:43:10.487Z,12.50
2019-04-24T23:46:14.820Z,12.43
2019-04-24T23:49:19.454Z,12.49
2019-04-24T23:52:23.806Z,12.44
2019-04-24T23:55:28.122Z,12.43
2019-04-24T23:58:32.442Z,12.32
